createdAt,value
2022-12-16T00:00:29.849Z,20.38
2022-12-16T00:02:58.488Z,20.35
2022-12-16T00:05:24.881Z,20.00
2022-12-16T00:07:51.319Z,20.13
2022-12-16T00:10:18.164Z,20.50
2022-12-16T00:12:44.513Z,19.52
2022-12-16T00:15:11.154Z,18.25
2022-12-16T00:17:37.633Z,19.83
2022-12-16T00:20:04.324Z,19.65
2022-12-16T00:22:30.785Z,21.75
2022-12-16T00:24:57.179Z,18.77
2022-12-16T00:27:23.504Z,19.55
2022-12-16T00:29:49.871Z,20.10
2022-12-16T00:32:16.273Z,19.38
2022-12-16T00:34:42.710Z,19.55
2022-12-16T00:37:11.018Z,20.63
2022-12-16T00:39:37.441Z,18.67
2022-12-16T00:42:03.827Z,18.73
2022-12-16T00:44:30.161Z,20.55
2022-12-16T00:46:56.526Z,21.80
2022-12-16T00:49:22.908Z,22.10
2022-12-16T00:51:49.582Z,22.13
2022-12-16T00:54:16.984Z,26.08
2022-12-16T00:56:43.313Z,24.42
2022-12-16T00:59:09.680Z,25.85
2022-12-16T01:01:36.466Z,28.20
2022-12-16T01:04:03.029Z,26.20
2022-12-16T01:06:29.363Z,27.30
2022-12-16T01:08:55.691Z,24.35
2022-12-16T01:11:22.119Z,24.05
2022-12-16T01:13:52.183Z,22.05
2022-12-16T01:16:18.954Z,21.02
2022-12-16T01:18:45.453Z,20.75
2022-12-16T01:21:13.286Z,19.55
2022-12-16T01:23:39.665Z,18.92
2022-12-16T01:26:06.280Z,20.35
2022-12-16T01:28:32.757Z,19.98
2022-12-16T01:31:01.698Z,19.45
2022-12-16T01:33:30.013Z,18.92
2022-12-16T01:36:04.613Z,19.38
2022-12-16T01:40:57.760Z,18.70
2022-12-16T01:43:25.830Z,20.13
2022-12-16T01:45:53.273Z,19.52
2022-12-16T01:48:34.149Z,20.13
2022-12-16T01:51:03.303Z,19.83
2022-12-16T01:53:30.595Z,18.70
2022-12-16T01:55:58.128Z,18.65
2022-12-16T01:58:27.508Z,18.00
2022-12-16T02:00:54.609Z,20.23
2022-12-16T02:03:21.622Z,20.15
2022-12-16T02:05:48.355Z,19.10
2022-12-16T02:08:15.853Z,19.48
2022-12-16T02:10:42.185Z,19.75
2022-12-16T02:13:14.762Z,19.63
2022-12-16T02:16:05.882Z,18.30
2022-12-16T02:18:33.331Z,18.90
2022-12-16T02:21:08.073Z,18.10
2022-12-16T02:23:40.630Z,17.45
2022-12-16T02:26:10.117Z,19.35
2022-12-16T02:28:42.702Z,17.67
2022-12-16T02:31:22.459Z,18.48
2022-12-16T02:34:10.346Z,18.40
2022-12-16T02:36:36.719Z,18.20
2022-12-16T02:39:32.343Z,18.63
2022-12-16T02:42:10.987Z,17.55
2022-12-16T02:44:57.655Z,18.58
2022-12-16T02:47:24.711Z,17.83
2022-12-16T02:49:51.919Z,17.17
2022-12-16T02:52:22.863Z,17.13
2022-12-16T02:54:50.519Z,16.83
2022-12-16T02:57:16.911Z,17.60
2022-12-16T02:59:58.762Z,17.80
2022-12-16T03:02:29.036Z,18.02
2022-12-16T03:04:59.936Z,16.55
2022-12-16T03:07:27.065Z,17.63
2022-12-16T03:09:53.768Z,17.65
2022-12-16T03:12:22.026Z,16.15
2022-12-16T03:14:50.082Z,17.88
2022-12-16T03:17:16.986Z,18.42
2022-12-16T03:19:46.173Z,17.65
2022-12-16T03:22:14.532Z,17.63
2022-12-16T03:24:41.056Z,17.35
2022-12-16T03:27:13.631Z,18.10
2022-12-16T03:29:58.761Z,17.13
2022-12-16T03:32:33.565Z,17.27
2022-12-16T03:35:02.375Z,16.25
2022-12-16T03:37:31.619Z,15.75
2022-12-16T03:39:59.077Z,18.00
2022-12-16T03:42:25.819Z,17.33
2022-12-16T03:44:52.302Z,16.63
2022-12-16T03:47:23.731Z,17.02
2022-12-16T03:49:50.634Z,16.95
2022-12-16T03:52:17.236Z,16.95
2022-12-16T03:54:43.587Z,17.85
2022-12-16T03:57:15.001Z,16.02
2022-12-16T03:59:41.941Z,17.65
2022-12-16T04:02:08.417Z,15.73
2022-12-16T04:04:34.929Z,14.95
2022-12-16T04:07:20.208Z,16.92
2022-12-16T04:09:46.990Z,17.35
2022-12-16T04:12:32.130Z,15.85
2022-12-16T04:15:17.274Z,18.63
2022-12-16T04:18:02.181Z,16.65
2022-12-16T04:20:48.574Z,16.25
2022-12-16T04:23:33.931Z,15.98
2022-12-16T04:26:00.606Z,15.55
2022-12-16T04:28:26.963Z,15.75
2022-12-16T04:30:53.605Z,15.27
2022-12-16T04:33:40.543Z,15.75
2022-12-16T04:36:26.130Z,14.75
2022-12-16T04:39:10.935Z,15.80
2022-12-16T04:41:55.928Z,14.85
2022-12-16T04:44:41.179Z,14.20
2022-12-16T04:47:26.300Z,13.85
2022-12-16T04:50:10.981Z,14.70
2022-12-16T04:55:41.113Z,14.30
2022-12-16T04:58:25.951Z,14.38
2022-12-16T05:04:15.479Z,14.63
2022-12-16T05:07:00.408Z,14.45
2022-12-16T05:09:45.387Z,14.82
2022-12-16T05:12:30.182Z,15.60
2022-12-16T05:15:15.204Z,14.40
2022-12-16T05:17:59.989Z,14.70
2022-12-16T05:20:45.256Z,14.45
2022-12-16T05:23:30.443Z,14.88
2022-12-16T05:26:15.892Z,14.27
2022-12-16T05:29:00.727Z,15.82
2022-12-16T05:31:45.592Z,13.27
2022-12-16T05:34:30.819Z,13.90
2022-12-16T05:37:15.675Z,16.55
2022-12-16T05:40:00.531Z,13.15
2022-12-16T05:42:45.245Z,13.57
2022-12-16T05:48:15.036Z,13.90
2022-12-16T05:51:00.228Z,12.25
2022-12-16T05:53:45.067Z,13.02
2022-12-16T05:56:29.851Z,12.52
2022-12-16T05:59:14.725Z,12.98
2022-12-16T06:01:59.861Z,13.18
2022-12-16T06:04:45.110Z,13.25
2022-12-16T06:07:29.918Z,12.77
2022-12-16T06:10:14.803Z,13.55
2022-12-16T06:12:59.755Z,13.20
2022-12-16T06:15:44.625Z,14.00
2022-12-16T06:18:29.284Z,12.82
2022-12-16T06:24:19.175Z,12.75
2022-12-16T06:27:03.956Z,12.57
2022-12-16T06:29:48.840Z,11.63
2022-12-16T06:32:33.687Z,12.55
2022-12-16T06:35:26.063Z,13.13
2022-12-16T06:38:10.980Z,11.60
2022-12-16T06:40:56.189Z,11.77
2022-12-16T06:43:41.005Z,12.00
2022-12-16T06:46:26.029Z,10.52
2022-12-16T06:49:11.202Z,9.98
2022-12-16T06:51:56.126Z,10.93
2022-12-16T06:54:40.993Z,10.07
2022-12-16T06:57:25.842Z,10.45
2022-12-16T07:00:10.766Z,10.95
2022-12-16T07:02:55.699Z,11.98
2022-12-16T07:05:40.888Z,10.70
2022-12-16T07:08:25.668Z,12.10
2022-12-16T07:11:16.603Z,11.88
2022-12-16T07:14:02.383Z,11.40
2022-12-16T07:16:47.536Z,12.18
2022-12-16T07:19:32.819Z,11.48
2022-12-16T07:22:17.854Z,12.10
2022-12-16T07:25:03.088Z,13.18
2022-12-16T07:27:48.195Z,13.60
2022-12-16T07:30:33.053Z,13.55
2022-12-16T07:33:18.098Z,11.50
2022-12-16T07:36:03.205Z,11.30
2022-12-16T07:38:48.124Z,10.70
2022-12-16T07:41:32.943Z,10.80
2022-12-16T07:44:17.810Z,11.65
2022-12-16T07:47:02.692Z,12.57
2022-12-16T07:49:55.453Z,11.90
2022-12-16T07:52:41.097Z,11.70
2022-12-16T07:55:26.507Z,11.93
2022-12-16T07:58:11.549Z,10.65
2022-12-16T08:00:56.531Z,11.30
2022-12-16T08:03:41.652Z,11.48
2022-12-16T08:06:26.942Z,11.70
2022-12-16T08:09:12.234Z,12.70
2022-12-16T08:11:56.968Z,12.55
2022-12-16T08:14:42.145Z,11.00
2022-12-16T08:17:26.999Z,10.98
2022-12-16T08:20:11.851Z,10.20
2022-12-16T08:22:58.127Z,10.80
2022-12-16T08:25:43.031Z,11.43
2022-12-16T08:28:27.977Z,11.82
2022-12-16T08:31:12.964Z,11.98
2022-12-16T08:33:57.947Z,10.77
2022-12-16T08:36:42.800Z,11.43
2022-12-16T08:39:27.633Z,11.13
2022-12-16T08:42:12.815Z,9.52
2022-12-16T08:44:57.799Z,9.90
2022-12-16T08:47:42.709Z,8.85
2022-12-16T08:50:27.576Z,9.93
2022-12-16T08:53:12.542Z,9.93
2022-12-16T08:55:57.517Z,10.25
2022-12-16T08:58:42.537Z,11.13
2022-12-16T09:01:27.393Z,11.77
2022-12-16T09:04:12.729Z,10.85
2022-12-16T09:06:58.065Z,12.77
2022-12-16T09:09:43.335Z,12.10
2022-12-16T09:12:28.320Z,11.20
2022-12-16T09:15:13.299Z,11.55
2022-12-16T09:17:58.692Z,12.07
2022-12-16T09:20:43.698Z,12.70
2022-12-16T09:23:28.734Z,12.10
2022-12-16T09:26:13.918Z,11.32
2022-12-16T09:28:59.234Z,11.88
2022-12-16T09:31:44.159Z,12.77
2022-12-16T09:34:28.972Z,12.27
2022-12-16T09:37:13.900Z,11.13
2022-12-16T09:39:58.697Z,11.60
2022-12-16T09:43:02.661Z,10.43
2022-12-16T09:46:06.496Z,11.05
2022-12-16T09:49:06.283Z,10.75
2022-12-16T09:51:52.273Z,9.95
2022-12-16T09:54:38.838Z,11.60
2022-12-16T09:57:24.114Z,10.85
2022-12-16T10:00:17.840Z,10.88
2022-12-16T10:03:06.912Z,11.52
2022-12-16T10:05:57.727Z,10.35
2022-12-16T10:09:05.151Z,10.45
2022-12-16T10:12:08.964Z,10.32
2022-12-16T10:15:04.525Z,9.80
2022-12-16T10:17:49.830Z,10.95
2022-12-16T10:20:51.335Z,10.43
2022-12-16T10:23:40.300Z,10.57
2022-12-16T10:26:35.762Z,11.82
2022-12-16T10:29:40.328Z,11.93
2022-12-16T10:32:38.658Z,10.50
2022-12-16T10:35:35.716Z,11.35
2022-12-16T10:38:20.688Z,11.13
2022-12-16T10:41:05.772Z,13.23
2022-12-16T10:43:56.144Z,11.90
2022-12-16T10:46:43.599Z,11.25
2022-12-16T10:49:33.389Z,10.82
2022-12-16T10:52:18.628Z,9.60
2022-12-16T10:55:23.648Z,11.15
2022-12-16T10:58:34.243Z,9.80
2022-12-16T11:01:38.326Z,8.10
2022-12-16T11:04:46.032Z,8.10
2022-12-16T11:07:50.024Z,7.93
2022-12-16T11:10:47.570Z,6.93
2022-12-16T11:13:40.087Z,8.70
2022-12-16T11:16:26.659Z,8.57
2022-12-16T11:19:11.960Z,7.82
2022-12-16T11:21:56.847Z,8.75
2022-12-16T11:24:41.715Z,8.25
2022-12-16T11:27:34.158Z,7.35
2022-12-16T11:30:19.042Z,8.07
2022-12-16T11:33:09.002Z,8.63
2022-12-16T11:35:56.498Z,8.25
2022-12-16T11:38:44.267Z,7.57
2022-12-16T11:41:42.288Z,7.32
2022-12-16T11:44:32.305Z,7.40
2022-12-16T11:47:17.375Z,7.10
2022-12-16T11:50:02.414Z,6.65
2022-12-16T11:52:47.596Z,7.30
2022-12-16T11:56:04.151Z,5.82
2022-12-16T11:59:00.864Z,6.30
2022-12-16T12:07:16.905Z,5.20
2022-12-16T12:10:08.731Z,5.85
2022-12-16T12:12:58.805Z,6.20
2022-12-16T12:15:48.208Z,5.53
2022-12-16T12:18:42.639Z,6.03
2022-12-16T12:21:43.686Z,5.90
2022-12-16T12:24:31.751Z,5.32
2022-12-16T12:27:43.246Z,5.40
2022-12-16T12:30:46.817Z,4.85
2022-12-16T12:33:46.958Z,4.88
2022-12-16T12:36:38.221Z,4.68
2022-12-16T12:39:33.058Z,4.47
2022-12-16T12:42:33.564Z,4.70
2022-12-16T12:45:34.041Z,4.43
2022-12-16T12:48:39.440Z,3.80
2022-12-16T12:51:36.497Z,3.00
2022-12-16T12:54:33.679Z,3.55
2022-12-16T12:57:19.790Z,3.15
2022-12-16T13:00:04.703Z,3.67
2022-12-16T13:02:55.257Z,3.53
2022-12-16T13:05:40.689Z,2.83
2022-12-16T13:08:44.917Z,3.20
2022-12-16T13:11:35.306Z,3.13
2022-12-16T13:14:20.726Z,3.10
2022-12-16T13:17:05.953Z,3.05
2022-12-16T13:19:51.180Z,3.45
2022-12-16T13:22:46.660Z,3.80
2022-12-16T13:25:51.372Z,3.88
2022-12-16T13:28:43.815Z,3.80
2022-12-16T13:31:28.942Z,3.67
2022-12-16T13:34:15.949Z,3.40
2022-12-16T13:37:03.044Z,3.70
2022-12-16T13:39:48.659Z,3.05
2022-12-16T13:42:53.650Z,20.88
2022-12-16T13:45:47.656Z,5.10
2022-12-16T13:48:46.548Z,3.10
2022-12-16T13:51:50.703Z,3.45
2022-12-16T13:54:35.534Z,3.75
2022-12-16T13:57:21.690Z,3.60
2022-12-16T14:00:06.593Z,3.67
2022-12-16T14:02:58.649Z,3.35
2022-12-16T14:05:47.851Z,3.42
2022-12-16T14:08:35.105Z,3.97
2022-12-16T14:11:21.504Z,3.35
2022-12-16T14:14:19.129Z,3.58
2022-12-16T14:17:11.751Z,3.75
2022-12-16T14:20:16.559Z,3.60
2022-12-16T14:23:06.985Z,4.00
2022-12-16T14:25:52.795Z,4.20
2022-12-16T14:28:40.847Z,3.35
2022-12-16T14:31:34.565Z,3.75
2022-12-16T14:34:22.846Z,3.75
2022-12-16T14:37:07.708Z,4.03
2022-12-16T14:39:57.657Z,3.65
2022-12-16T14:42:49.587Z,3.15
2022-12-16T14:45:45.178Z,3.97
2022-12-16T14:48:43.138Z,4.45
2022-12-16T14:51:36.003Z,4.35
2022-12-16T14:54:33.472Z,3.95
2022-12-16T14:57:18.650Z,4.15
2022-12-16T15:00:03.385Z,3.65
2022-12-16T15:02:51.330Z,3.97
2022-12-16T15:05:37.550Z,3.83
2022-12-16T15:08:23.783Z,3.70
2022-12-16T15:11:09.162Z,3.97
2022-12-16T15:14:03.417Z,3.90
2022-12-16T15:19:37.207Z,4.20
2022-12-16T15:22:22.064Z,4.50
2022-12-16T15:25:06.874Z,3.92
2022-12-16T15:27:55.766Z,7.63
2022-12-16T15:30:53.022Z,4.53
2022-12-16T15:33:39.253Z,4.55
2022-12-16T15:36:24.621Z,5.15
2022-12-16T15:39:09.475Z,4.90
2022-12-16T15:41:55.802Z,4.68
2022-12-16T15:44:45.966Z,4.97
2022-12-16T15:47:49.670Z,5.43
2022-12-16T15:50:34.901Z,5.38
2022-12-16T15:53:38.875Z,6.20
2022-12-16T15:56:23.830Z,5.40
2022-12-16T15:59:08.897Z,5.57
2022-12-16T16:02:04.577Z,6.00
2022-12-16T16:04:50.315Z,6.60
2022-12-16T16:07:35.335Z,6.05
2022-12-16T16:10:38.467Z,6.90
2022-12-16T16:13:23.945Z,6.20
2022-12-16T16:16:09.480Z,7.00
2022-12-16T16:18:55.001Z,7.45
2022-12-16T16:21:40.794Z,7.85
2022-12-16T16:24:26.036Z,8.20
2022-12-16T16:27:11.876Z,8.02
2022-12-16T16:29:56.953Z,9.30
2022-12-16T16:32:41.803Z,9.63
2022-12-16T16:35:26.971Z,10.52
2022-12-16T16:38:15.441Z,10.73
2022-12-16T16:41:03.683Z,9.40
2022-12-16T16:43:49.289Z,10.43
2022-12-16T16:46:46.801Z,9.52
2022-12-16T16:49:37.277Z,9.75
2022-12-16T16:52:22.147Z,9.00
2022-12-16T16:55:07.265Z,8.80
2022-12-16T16:57:53.843Z,9.55
2022-12-16T17:00:38.936Z,8.52
2022-12-16T17:03:24.126Z,7.93
2022-12-16T17:06:09.354Z,9.15
2022-12-16T17:08:54.143Z,8.30
2022-12-16T17:11:40.119Z,9.60
2022-12-16T17:14:28.459Z,9.02
2022-12-16T17:17:13.559Z,9.55
2022-12-16T17:19:58.935Z,15.30
2022-12-16T17:22:43.936Z,11.82
2022-12-16T17:25:29.072Z,11.63
2022-12-16T17:28:13.966Z,11.07
2022-12-16T17:31:12.731Z,11.30
2022-12-16T17:33:57.694Z,9.60
2022-12-16T17:36:42.725Z,9.20
2022-12-16T17:39:28.191Z,9.25
2022-12-16T17:42:12.945Z,9.40
2022-12-16T17:44:58.321Z,9.32
2022-12-16T17:47:43.559Z,9.30
2022-12-16T17:50:28.629Z,7.40
2022-12-16T17:53:16.705Z,7.38
2022-12-16T17:56:01.764Z,8.15
2022-12-16T17:58:50.853Z,10.38
2022-12-16T18:01:36.283Z,8.00
2022-12-16T18:04:21.328Z,9.85
2022-12-16T18:07:06.630Z,9.13
2022-12-16T18:09:51.425Z,8.95
2022-12-16T18:12:36.415Z,12.23
2022-12-16T18:15:21.411Z,19.23
2022-12-16T18:18:07.553Z,22.45
2022-12-16T18:20:53.022Z,19.15
2022-12-16T18:23:38.057Z,19.20
2022-12-16T18:26:24.581Z,14.07
2022-12-16T18:29:09.977Z,14.57
2022-12-16T18:31:55.440Z,12.93
2022-12-16T18:34:40.531Z,12.63
2022-12-16T18:37:25.334Z,10.85
2022-12-16T18:40:10.495Z,11.18
2022-12-16T18:42:55.493Z,12.20
2022-12-16T18:45:41.858Z,12.13
2022-12-16T18:48:26.962Z,11.02
2022-12-16T18:51:15.920Z,9.70
2022-12-16T18:54:00.844Z,9.43
2022-12-16T18:56:45.623Z,10.32
2022-12-16T18:59:30.611Z,9.02
2022-12-16T19:02:15.911Z,9.13
2022-12-16T19:05:01.017Z,9.63
2022-12-16T19:07:46.002Z,13.52
2022-12-16T19:10:30.849Z,19.10
2022-12-16T19:13:18.910Z,14.23
2022-12-16T19:16:15.909Z,11.00
2022-12-16T19:19:01.138Z,8.85
2022-12-16T19:21:51.545Z,9.48
2022-12-16T19:24:37.498Z,9.38
2022-12-16T19:27:22.423Z,10.98
2022-12-16T19:30:07.751Z,12.90
2022-12-16T19:32:52.856Z,12.85
2022-12-16T19:35:38.694Z,11.57
2022-12-16T19:38:23.977Z,11.27
2022-12-16T19:41:12.741Z,12.40
2022-12-16T19:44:05.184Z,9.82
2022-12-16T19:46:51.653Z,10.35
2022-12-16T19:49:40.781Z,11.07
2022-12-16T19:52:29.320Z,11.25
2022-12-16T19:55:17.200Z,11.65
2022-12-16T19:58:03.071Z,11.18
2022-12-16T20:00:48.115Z,11.07
2022-12-16T20:03:37.005Z,10.52
2022-12-16T20:06:23.250Z,9.07
2022-12-16T20:09:11.826Z,8.35
2022-12-16T20:11:56.864Z,7.88
2022-12-16T20:14:42.176Z,10.35
2022-12-16T20:17:27.735Z,9.50
2022-12-16T20:20:13.367Z,9.45
2022-12-16T20:22:58.245Z,10.77
2022-12-16T20:25:43.375Z,10.48
2022-12-16T20:28:28.543Z,8.70
2022-12-16T20:31:13.495Z,6.40
2022-12-16T20:34:02.892Z,6.60
2022-12-16T20:36:48.269Z,7.10
2022-12-16T20:39:33.083Z,7.25
2022-12-16T20:42:18.035Z,10.73
2022-12-16T20:45:02.994Z,9.10
2022-12-16T20:47:47.888Z,8.32
2022-12-16T20:50:32.728Z,9.18
2022-12-16T20:53:17.854Z,8.65
2022-12-16T20:56:02.964Z,9.18
2022-12-16T20:58:47.876Z,6.15
2022-12-16T21:01:33.091Z,8.05
2022-12-16T21:04:18.087Z,7.53
2022-12-16T21:07:03.395Z,8.38
2022-12-16T21:09:48.566Z,14.40
2022-12-16T21:12:33.601Z,11.25
2022-12-16T21:15:18.811Z,10.27
2022-12-16T21:18:03.817Z,9.68
2022-12-16T21:20:49.060Z,9.40
2022-12-16T21:23:33.950Z,10.85
2022-12-16T21:26:19.057Z,15.02
2022-12-16T21:29:05.148Z,14.40
2022-12-16T21:31:50.232Z,13.18
2022-12-16T21:34:35.204Z,11.55
2022-12-16T21:37:20.135Z,10.60
2022-12-16T21:40:05.371Z,11.00
2022-12-16T21:42:50.756Z,10.85
2022-12-16T21:45:36.625Z,9.40
2022-12-16T21:48:21.517Z,8.30
2022-12-16T21:51:12.613Z,8.73
2022-12-16T21:53:58.682Z,9.38
2022-12-16T21:56:46.218Z,9.38
2022-12-16T21:59:31.148Z,9.02
2022-12-16T22:02:16.177Z,11.27
2022-12-16T22:05:01.198Z,12.13
2022-12-16T22:07:56.110Z,10.40
2022-12-16T22:13:26.296Z,10.77
2022-12-16T22:16:17.244Z,9.85
2022-12-16T22:19:02.280Z,9.25
2022-12-16T22:21:47.192Z,8.45
2022-12-16T22:24:32.026Z,6.22
2022-12-16T22:27:16.988Z,5.78
2022-12-16T22:30:02.044Z,5.78
2022-12-16T22:32:47.224Z,6.82
2022-12-16T22:35:32.608Z,7.35
2022-12-16T22:38:17.684Z,6.88
2022-12-16T22:41:02.704Z,7.50
2022-12-16T22:43:51.819Z,8.40
2022-12-16T22:46:37.227Z,7.45
2022-12-16T22:49:22.588Z,10.05
2022-12-16T22:52:07.465Z,9.93
2022-12-16T22:54:53.226Z,10.00
2022-12-16T22:57:38.289Z,9.18
2022-12-16T23:00:24.194Z,8.40
2022-12-16T23:03:09.838Z,9.18
2022-12-16T23:05:55.054Z,8.93
2022-12-16T23:08:40.188Z,8.90
2022-12-16T23:11:25.306Z,7.82
2022-12-16T23:14:10.302Z,7.90
2022-12-16T23:16:55.206Z,7.78
2022-12-16T23:19:41.446Z,7.70
2022-12-16T23:22:26.806Z,8.68
2022-12-16T23:25:11.738Z,8.52
2022-12-16T23:27:56.752Z,14.50
2022-12-16T23:30:58.868Z,13.20
2022-12-16T23:33:43.919Z,10.07
2022-12-16T23:36:29.133Z,8.70
2022-12-16T23:39:13.884Z,8.68
2022-12-16T23:41:58.755Z,8.82
2022-12-16T23:44:57.668Z,9.82
2022-12-16T23:47:42.666Z,10.45
2022-12-16T23:50:27.509Z,10.05
2022-12-16T23:53:25.838Z,10.18
2022-12-16T23:56:18.318Z,10.52
2022-12-16T23:59:03.664Z,9.98
